createdAt,value
2023-01-27T00:00:24.127Z,1.81
2023-01-27T00:01:24.288Z,1.79
2023-01-27T00:02:24.490Z,1.78
2023-01-27T00:03:24.675Z,1.78
2023-01-27T00:04:24.819Z,1.79
2023-01-27T00:05:24.973Z,1.75
2023-01-27T00:06:25.127Z,1.70
2023-01-27T00:07:25.310Z,1.71
2023-01-27T00:08:25.461Z,1.74
2023-01-27T00:09:25.614Z,1.75
2023-01-27T00:10:25.772Z,1.75
2023-01-27T00:11:25.921Z,1.74
2023-01-27T00:12:26.082Z,1.75
2023-01-27T00:13:26.231Z,1.76
2023-01-27T00:14:26.389Z,1.79
2023-01-27T00:15:26.565Z,1.82
2023-01-27T00:16:26.975Z,1.82
2023-01-27T00:17:26.932Z,1.79
2023-01-27T00:18:27.172Z,1.81
2023-01-27T00:19:27.339Z,1.74
2023-01-27T00:20:27.487Z,1.75
2023-01-27T00:21:27.683Z,1.78
2023-01-27T00:22:27.832Z,1.79
2023-01-27T00:23:28.008Z,1.76
2023-01-27T00:24:28.165Z,1.78
2023-01-27T00:25:28.316Z,1.76
2023-01-27T00:26:28.494Z,1.78
2023-01-27T00:27:28.675Z,1.81
2023-01-27T00:28:28.854Z,1.82
2023-01-27T00:29:29.078Z,1.79
2023-01-27T00:30:29.245Z,1.78
2023-01-27T00:31:29.451Z,1.75
2023-01-27T00:32:29.646Z,1.74
2023-01-27T00:33:29.815Z,1.78
2023-01-27T00:34:29.963Z,1.75
2023-01-27T00:35:30.137Z,1.67
2023-01-27T00:36:30.284Z,1.70
2023-01-27T00:37:30.505Z,1.74
2023-01-27T00:38:30.649Z,1.74
2023-01-27T00:39:30.804Z,1.75
2023-01-27T00:40:30.946Z,1.76
2023-01-27T00:41:31.112Z,1.79
2023-01-27T00:42:31.291Z,1.81
2023-01-27T00:43:31.441Z,1.84
2023-01-27T00:44:31.639Z,1.82
2023-01-27T00:45:31.827Z,1.82
2023-01-27T00:46:32.097Z,1.84
2023-01-27T00:47:32.207Z,1.84
2023-01-27T00:48:32.379Z,1.84
2023-01-27T00:49:32.549Z,1.85
2023-01-27T00:50:32.703Z,1.85
2023-01-27T00:51:32.858Z,1.85
2023-01-27T00:52:33.030Z,1.85
2023-01-27T00:53:33.255Z,1.85
2023-01-27T00:54:33.417Z,1.85
2023-01-27T00:55:33.594Z,1.86
2023-01-27T00:56:33.766Z,1.84
2023-01-27T00:57:33.927Z,1.85
2023-01-27T00:58:34.085Z,1.86
2023-01-27T00:59:34.242Z,1.88
2023-01-27T01:00:34.405Z,1.89
2023-01-27T01:01:34.614Z,1.92
2023-01-27T01:02:34.817Z,1.93
2023-01-27T01:03:34.979Z,1.92
2023-01-27T01:04:35.145Z,1.95
2023-01-27T01:05:35.294Z,1.97
2023-01-27T01:06:35.455Z,1.92
2023-01-27T01:07:35.617Z,1.95
2023-01-27T01:08:35.774Z,1.97
2023-01-27T01:09:35.950Z,1.97
2023-01-27T01:10:36.102Z,1.97
2023-01-27T01:11:36.254Z,1.92
2023-01-27T01:12:36.443Z,1.89
2023-01-27T01:13:36.579Z,1.89
2023-01-27T01:14:36.739Z,1.88
2023-01-27T01:15:36.883Z,1.84
2023-01-27T01:16:37.037Z,1.78
2023-01-27T01:17:37.190Z,1.66
2023-01-27T01:18:37.341Z,1.66
2023-01-27T01:19:37.482Z,1.67
2023-01-27T01:20:37.645Z,1.67
2023-01-27T01:21:40.073Z,1.66
2023-01-27T01:22:37.999Z,1.67
2023-01-27T01:23:38.139Z,1.64
2023-01-27T01:24:38.321Z,1.64
2023-01-27T01:25:38.467Z,1.63
2023-01-27T01:26:38.648Z,1.63
2023-01-27T01:27:38.821Z,1.64
2023-01-27T01:28:38.974Z,1.67
2023-01-27T01:29:39.126Z,1.67
2023-01-27T01:30:39.300Z,1.70
2023-01-27T01:31:39.520Z,1.70
2023-01-27T01:32:39.700Z,1.74
2023-01-27T01:33:39.863Z,1.71
2023-01-27T01:34:40.033Z,1.68
2023-01-27T01:35:40.175Z,1.70
2023-01-27T01:36:40.341Z,1.71
2023-01-27T01:37:40.505Z,1.71
2023-01-27T01:38:40.660Z,1.76
2023-01-27T01:39:40.812Z,1.81
2023-01-27T01:40:41.003Z,1.76
2023-01-27T01:41:41.164Z,1.74
2023-01-27T01:42:41.340Z,1.74
2023-01-27T01:43:41.502Z,1.75
2023-01-27T01:44:41.659Z,1.76
2023-01-27T01:45:41.827Z,1.79
2023-01-27T01:46:42.088Z,1.79
2023-01-27T01:47:42.292Z,1.79
2023-01-27T01:48:42.467Z,1.81
2023-01-27T01:49:42.610Z,1.75
2023-01-27T01:50:42.790Z,1.68
2023-01-27T01:51:42.961Z,1.70
2023-01-27T01:52:43.167Z,1.71
2023-01-27T01:53:43.364Z,1.71
2023-01-27T01:54:43.566Z,1.71
2023-01-27T01:55:43.748Z,1.70
2023-01-27T01:56:43.911Z,1.75
2023-01-27T01:57:44.124Z,1.78
2023-01-27T01:58:44.223Z,1.79
2023-01-27T01:59:44.358Z,1.75
2023-01-27T02:00:44.531Z,1.71
2023-01-27T02:01:44.763Z,1.71
2023-01-27T02:02:44.967Z,1.71
2023-01-27T02:03:52.136Z,1.66
2023-01-27T02:04:45.260Z,1.66
2023-01-27T02:05:45.433Z,1.70
2023-01-27T02:06:48.310Z,1.71
2023-01-27T02:07:45.791Z,1.71
2023-01-27T02:08:45.957Z,1.70
2023-01-27T02:09:46.112Z,1.71
2023-01-27T02:10:46.281Z,1.71
2023-01-27T02:11:46.419Z,1.74
2023-01-27T02:12:46.628Z,1.74
2023-01-27T02:13:46.779Z,1.76
2023-01-27T02:14:46.933Z,1.78
2023-01-27T02:15:47.103Z,1.75
2023-01-27T02:16:47.284Z,1.71
2023-01-27T02:17:47.444Z,1.74
2023-01-27T02:18:47.593Z,1.76
2023-01-27T02:19:47.753Z,1.79
2023-01-27T02:20:48.177Z,1.79
2023-01-27T02:21:49.660Z,1.79
2023-01-27T02:22:48.293Z,1.82
2023-01-27T02:23:48.487Z,1.82
2023-01-27T02:24:48.653Z,1.84
2023-01-27T02:25:48.793Z,1.82
2023-01-27T02:26:48.951Z,1.82
2023-01-27T02:27:49.134Z,1.84
2023-01-27T02:28:49.456Z,1.81
2023-01-27T02:29:49.785Z,1.84
2023-01-27T02:30:49.839Z,1.81
2023-01-27T02:31:50.055Z,1.84
2023-01-27T02:32:50.027Z,1.76
2023-01-27T02:33:50.173Z,1.76
2023-01-27T02:34:50.316Z,1.78
2023-01-27T02:35:50.546Z,1.81
2023-01-27T02:36:50.717Z,1.81
2023-01-27T02:37:50.892Z,1.82
2023-01-27T02:38:51.042Z,1.84
2023-01-27T02:39:51.190Z,1.84
2023-01-27T02:40:51.348Z,1.82
2023-01-27T02:41:51.487Z,1.85
2023-01-27T02:42:51.659Z,1.86
2023-01-27T02:43:51.801Z,1.89
2023-01-27T02:44:51.953Z,1.92
2023-01-27T02:45:52.164Z,1.92
2023-01-27T02:46:52.333Z,1.93
2023-01-27T02:47:52.553Z,1.93
2023-01-27T02:48:52.712Z,1.95
2023-01-27T02:49:52.882Z,1.98
2023-01-27T02:50:53.034Z,1.95
2023-01-27T02:51:53.164Z,1.97
2023-01-27T02:52:53.329Z,1.98
2023-01-27T02:53:53.479Z,1.98
2023-01-27T02:54:53.625Z,1.97
2023-01-27T02:55:53.760Z,2.00
2023-01-27T02:56:53.899Z,2.01
2023-01-27T02:57:54.045Z,2.04
2023-01-27T02:58:54.189Z,2.04
2023-01-27T02:59:54.410Z,2.07
2023-01-27T03:00:54.545Z,2.08
2023-01-27T03:01:54.669Z,2.07
2023-01-27T03:02:54.834Z,2.04
2023-01-27T03:03:54.960Z,2.05
2023-01-27T03:04:55.117Z,2.08
2023-01-27T03:05:55.252Z,2.05
2023-01-27T03:06:55.397Z,2.04
2023-01-27T03:07:55.553Z,2.04
2023-01-27T03:08:55.675Z,2.03
2023-01-27T03:09:55.804Z,2.03
2023-01-27T03:10:56.078Z,2.01
2023-01-27T03:11:56.215Z,2.03
2023-01-27T03:12:56.390Z,2.03
2023-01-27T03:13:56.505Z,2.04
2023-01-27T03:14:56.633Z,2.03
2023-01-27T03:15:56.783Z,2.03
2023-01-27T03:16:56.913Z,2.00
2023-01-27T03:17:57.042Z,2.01
2023-01-27T03:18:57.178Z,2.01
2023-01-27T03:19:57.348Z,2.03
2023-01-27T03:20:57.476Z,2.04
2023-01-27T03:21:57.622Z,2.01
2023-01-27T03:22:57.777Z,2.04
2023-01-27T03:23:57.957Z,2.04
2023-01-27T03:24:58.069Z,2.07
2023-01-27T03:25:58.191Z,2.07
2023-01-27T03:26:58.326Z,2.08
2023-01-27T03:27:58.474Z,2.08
2023-01-27T03:28:58.711Z,2.07
2023-01-27T03:29:58.804Z,2.07
2023-01-27T03:30:59.036Z,2.08
2023-01-27T03:31:59.182Z,2.07
2023-01-27T03:32:59.468Z,2.08
2023-01-27T03:33:59.496Z,2.12
2023-01-27T03:34:59.646Z,2.14
2023-01-27T03:35:59.788Z,2.14
2023-01-27T03:36:59.926Z,2.12
2023-01-27T03:38:00.117Z,2.12
2023-01-27T03:39:00.249Z,2.14
2023-01-27T03:40:00.404Z,2.12
2023-01-27T03:41:00.543Z,2.14
2023-01-27T03:42:00.680Z,2.15
2023-01-27T03:43:00.888Z,2.10
2023-01-27T03:44:01.027Z,2.12
2023-01-27T03:45:01.200Z,2.12
2023-01-27T03:46:01.418Z,2.14
2023-01-27T03:47:01.554Z,2.15
2023-01-27T03:48:01.711Z,2.18
2023-01-27T03:49:01.852Z,2.16
2023-01-27T03:50:01.983Z,2.18
2023-01-27T03:51:02.113Z,2.18
2023-01-27T03:52:02.246Z,2.16
2023-01-27T03:53:02.394Z,2.16
2023-01-27T03:54:02.519Z,2.15
2023-01-27T03:55:02.833Z,2.16
2023-01-27T03:56:02.977Z,2.16
2023-01-27T03:57:03.147Z,2.18
2023-01-27T03:58:03.380Z,2.18
2023-01-27T03:59:03.396Z,2.16
2023-01-27T04:00:03.529Z,2.15
2023-01-27T04:01:03.684Z,2.14
2023-01-27T04:02:03.792Z,2.15
2023-01-27T04:03:03.964Z,2.18
2023-01-27T04:04:04.087Z,2.16
2023-01-27T04:05:04.255Z,2.18
2023-01-27T04:06:04.422Z,2.18
2023-01-27T04:07:04.557Z,2.19
2023-01-27T04:08:04.704Z,2.21
2023-01-27T04:09:04.845Z,2.21
2023-01-27T04:10:04.988Z,2.21
2023-01-27T04:11:05.115Z,2.22
2023-01-27T04:12:05.243Z,2.23
2023-01-27T04:13:05.396Z,2.25
2023-01-27T04:14:05.521Z,2.26
2023-01-27T04:15:05.641Z,2.25
2023-01-27T04:16:05.802Z,2.25
2023-01-27T04:17:05.919Z,2.26
2023-01-27T04:18:06.095Z,2.26
2023-01-27T04:19:06.238Z,2.25
2023-01-27T04:20:06.339Z,2.25
2023-01-27T04:21:06.600Z,2.28
2023-01-27T04:22:06.723Z,2.26
2023-01-27T04:23:06.868Z,2.26
2023-01-27T04:24:07.044Z,2.25
2023-01-27T04:25:07.165Z,2.23
2023-01-27T04:26:07.308Z,2.25
2023-01-27T04:27:07.460Z,2.25
2023-01-27T04:28:07.599Z,2.26
2023-01-27T04:29:07.720Z,2.26
2023-01-27T04:30:07.841Z,2.28
2023-01-27T04:31:08.078Z,2.32
2023-01-27T04:32:08.193Z,2.30
2023-01-27T04:33:08.405Z,2.28
2023-01-27T04:34:08.598Z,2.26
2023-01-27T04:35:08.798Z,2.23
2023-01-27T04:36:08.980Z,2.23
2023-01-27T04:37:09.135Z,2.22
2023-01-27T04:38:09.262Z,2.22
2023-01-27T04:39:09.391Z,2.22
2023-01-27T04:40:09.533Z,2.25
2023-01-27T04:41:09.685Z,2.28
2023-01-27T04:42:09.794Z,2.30
2023-01-27T04:43:10.038Z,2.30
2023-01-27T04:44:10.155Z,2.32
2023-01-27T04:45:10.540Z,2.34
2023-01-27T04:46:10.558Z,2.34
2023-01-27T04:47:10.695Z,2.36
2023-01-27T04:48:10.834Z,2.36
2023-01-27T04:49:10.999Z,2.37
2023-01-27T04:50:11.128Z,2.37
2023-01-27T04:51:11.249Z,2.37
2023-01-27T04:52:11.482Z,2.36
2023-01-27T04:53:11.747Z,2.39
2023-01-27T04:54:11.864Z,2.37
2023-01-27T04:55:12.374Z,2.37
2023-01-27T04:56:12.181Z,2.37
2023-01-27T04:57:12.306Z,2.39
2023-01-27T04:58:12.445Z,2.40
2023-01-27T04:59:12.618Z,2.40
2023-01-27T05:00:12.740Z,2.40
2023-01-27T05:01:12.929Z,2.39
2023-01-27T05:02:13.157Z,2.37
2023-01-27T05:03:13.322Z,2.37
2023-01-27T05:04:13.449Z,2.36
2023-01-27T05:05:14.032Z,2.36
2023-01-27T05:06:13.767Z,2.36
2023-01-27T05:07:14.017Z,2.33
2023-01-27T05:08:14.180Z,2.32
2023-01-27T05:09:14.302Z,2.34
2023-01-27T05:10:14.437Z,2.36
2023-01-27T05:11:14.590Z,2.36
2023-01-27T05:12:14.711Z,2.34
2023-01-27T05:13:14.864Z,2.34
2023-01-27T05:14:15.053Z,2.34
2023-01-27T05:15:15.454Z,2.36
2023-01-27T05:16:15.352Z,2.36
2023-01-27T05:17:15.465Z,2.39
2023-01-27T05:18:15.616Z,2.37
2023-01-27T05:19:15.734Z,2.37
2023-01-27T05:20:15.865Z,2.37
2023-01-27T05:21:16.041Z,2.37
2023-01-27T05:22:16.131Z,2.36
2023-01-27T05:23:16.261Z,2.37
2023-01-27T05:24:16.466Z,2.37
2023-01-27T05:25:16.582Z,2.37
2023-01-27T05:26:16.732Z,2.37
2023-01-27T05:27:16.859Z,2.36
2023-01-27T05:28:17.011Z,2.40
2023-01-27T05:29:17.180Z,2.37
2023-01-27T05:30:17.332Z,2.37
2023-01-27T05:31:17.548Z,2.39
2023-01-27T05:32:17.643Z,2.40
2023-01-27T05:33:17.798Z,2.41
2023-01-27T05:34:17.936Z,2.41
2023-01-27T05:35:18.071Z,2.44
2023-01-27T05:36:18.232Z,2.43
2023-01-27T05:37:18.364Z,2.43
2023-01-27T05:38:18.526Z,2.46
2023-01-27T05:39:18.751Z,2.46
2023-01-27T05:40:18.897Z,2.50
2023-01-27T05:41:19.030Z,2.50
2023-01-27T05:42:19.167Z,2.47
2023-01-27T05:43:19.339Z,2.47
2023-01-27T05:44:19.505Z,2.46
2023-01-27T05:45:19.868Z,2.47
2023-01-27T05:46:19.905Z,2.47
2023-01-27T05:47:20.153Z,2.50
2023-01-27T05:48:20.310Z,2.50
2023-01-27T05:49:20.481Z,2.51
2023-01-27T05:50:20.673Z,2.51
2023-01-27T05:51:20.978Z,2.50
2023-01-27T05:52:21.025Z,2.51
2023-01-27T05:53:21.217Z,2.51
2023-01-27T05:54:21.543Z,2.51
2023-01-27T05:55:21.617Z,2.50
2023-01-27T05:56:21.777Z,2.51
2023-01-27T05:57:23.517Z,2.51
2023-01-27T05:58:22.136Z,2.51
2023-01-27T05:59:23.230Z,2.52
2023-01-27T06:00:22.487Z,2.51
2023-01-27T06:01:22.639Z,2.50
2023-01-27T06:02:23.703Z,2.50
2023-01-27T06:03:22.971Z,2.47
2023-01-27T06:04:23.684Z,2.46
2023-01-27T06:05:23.279Z,2.46
2023-01-27T06:06:23.454Z,2.46
2023-01-27T06:07:23.567Z,2.44
2023-01-27T06:08:23.729Z,2.41
2023-01-27T06:09:23.871Z,2.40
2023-01-27T06:10:24.039Z,2.39
2023-01-27T06:11:24.345Z,2.40
2023-01-27T06:12:24.356Z,2.40
2023-01-27T06:13:24.575Z,2.40
2023-01-27T06:14:24.772Z,2.40
2023-01-27T06:15:24.920Z,2.40
2023-01-27T06:16:25.129Z,2.43
2023-01-27T06:17:25.268Z,2.40
2023-01-27T06:18:25.467Z,2.39
2023-01-27T06:19:25.611Z,2.40
2023-01-27T06:20:25.791Z,2.43
2023-01-27T06:21:25.998Z,2.44
2023-01-27T06:22:26.213Z,2.44
2023-01-27T06:23:26.457Z,2.44
2023-01-27T06:24:26.592Z,2.43
2023-01-27T06:25:26.689Z,2.40
2023-01-27T06:26:26.946Z,2.40
2023-01-27T06:27:27.047Z,2.41
2023-01-27T06:28:29.907Z,2.40
2023-01-27T06:29:27.379Z,2.40
2023-01-27T06:30:27.608Z,2.39
2023-01-27T06:31:27.981Z,2.40
2023-01-27T06:32:28.047Z,2.41
2023-01-27T06:33:28.289Z,2.43
2023-01-27T06:34:28.505Z,2.46
2023-01-27T06:35:28.711Z,2.47
2023-01-27T06:36:28.934Z,2.51
2023-01-27T06:37:29.142Z,2.52
2023-01-27T06:38:29.611Z,2.52
2023-01-27T06:39:29.457Z,2.52
2023-01-27T06:40:29.674Z,2.54
2023-01-27T06:41:29.856Z,2.57
2023-01-27T06:42:30.043Z,2.59
2023-01-27T06:43:30.248Z,2.65
2023-01-27T06:44:30.437Z,2.70
2023-01-27T06:45:30.638Z,2.75
2023-01-27T06:46:30.924Z,2.76
2023-01-27T06:47:31.033Z,2.76
2023-01-27T06:48:31.289Z,2.77
2023-01-27T06:49:31.354Z,2.77
2023-01-27T06:50:31.628Z,2.79
2023-01-27T06:51:31.751Z,2.73
2023-01-27T06:52:31.937Z,2.70
2023-01-27T06:53:32.143Z,2.69
2023-01-27T06:54:32.352Z,2.64
2023-01-27T06:55:32.552Z,2.64
2023-01-27T06:56:32.772Z,2.64
2023-01-27T06:57:32.929Z,2.68
2023-01-27T06:58:33.145Z,2.68
2023-01-27T06:59:33.377Z,2.64
2023-01-27T07:00:33.551Z,2.64
2023-01-27T07:01:33.872Z,2.64
2023-01-27T07:02:33.951Z,2.65
2023-01-27T07:03:39.340Z,2.69
2023-01-27T07:04:34.363Z,2.72
2023-01-27T07:05:34.436Z,2.75
2023-01-27T07:06:34.611Z,2.73
2023-01-27T07:07:34.827Z,2.75
2023-01-27T07:08:35.024Z,2.75
2023-01-27T07:09:50.570Z,2.75
2023-01-27T07:10:36.366Z,2.77
2023-01-27T07:11:35.551Z,2.76
2023-01-27T07:12:35.777Z,2.77
2023-01-27T07:13:35.979Z,2.79
2023-01-27T07:14:36.178Z,2.79
2023-01-27T07:15:36.366Z,2.79
2023-01-27T07:16:36.618Z,2.77
2023-01-27T07:17:36.791Z,2.79
2023-01-27T07:18:37.035Z,2.80
2023-01-27T07:19:37.215Z,2.83
2023-01-27T07:20:37.408Z,2.83
2023-01-27T07:21:37.597Z,2.82
2023-01-27T07:22:37.771Z,2.80
2023-01-27T07:23:38.000Z,2.79
2023-01-27T07:24:38.171Z,2.85
2023-01-27T07:25:38.374Z,2.87
2023-01-27T07:26:38.595Z,2.88
2023-01-27T07:27:38.786Z,2.90
2023-01-27T07:28:38.984Z,2.93
2023-01-27T07:29:39.176Z,2.93
2023-01-27T07:30:39.487Z,2.93
2023-01-27T07:31:39.580Z,2.95
2023-01-27T07:32:39.735Z,2.98
2023-01-27T07:33:39.940Z,2.98
2023-01-27T07:34:40.118Z,3.00
2023-01-27T07:35:40.299Z,3.01
2023-01-27T07:36:40.474Z,3.01
2023-01-27T07:37:40.660Z,3.03
2023-01-27T07:38:40.870Z,3.03
2023-01-27T07:39:41.055Z,3.03
2023-01-27T07:40:41.230Z,3.00
2023-01-27T07:41:41.425Z,2.98
2023-01-27T07:42:41.600Z,3.00
2023-01-27T07:43:41.813Z,3.00
2023-01-27T07:44:41.976Z,2.98
2023-01-27T07:45:42.248Z,3.00
2023-01-27T07:46:42.292Z,3.01
2023-01-27T07:47:42.481Z,3.01
2023-01-27T07:48:42.689Z,3.05
2023-01-27T07:49:42.863Z,3.08
2023-01-27T07:50:43.045Z,3.11
2023-01-27T07:51:43.214Z,3.13
2023-01-27T07:52:43.396Z,3.15
2023-01-27T07:53:43.584Z,3.12
2023-01-27T07:54:43.754Z,3.13
2023-01-27T07:55:43.927Z,3.12
2023-01-27T07:56:44.103Z,3.13
2023-01-27T07:57:44.272Z,3.15
2023-01-27T07:58:44.453Z,3.15
2023-01-27T07:59:44.639Z,3.15
2023-01-27T08:00:44.864Z,3.18
2023-01-27T08:01:47.184Z,3.16
2023-01-27T08:02:45.183Z,3.12
2023-01-27T08:03:45.371Z,3.13
2023-01-27T08:04:53.831Z,3.16
2023-01-27T08:05:45.720Z,3.18
2023-01-27T08:06:48.582Z,3.19
2023-01-27T08:07:46.834Z,3.19
2023-01-27T08:08:46.248Z,3.19
2023-01-27T08:09:46.440Z,3.21
2023-01-27T08:10:46.615Z,3.26
2023-01-27T08:11:46.807Z,3.27
2023-01-27T08:12:46.976Z,3.29
2023-01-27T08:13:47.177Z,3.34
2023-01-27T08:14:47.346Z,3.31
2023-01-27T08:15:47.517Z,3.34
2023-01-27T08:16:47.747Z,3.33
2023-01-27T08:17:47.846Z,3.31
2023-01-27T08:18:48.027Z,3.31
2023-01-27T08:19:48.204Z,3.34
2023-01-27T08:20:48.388Z,3.34
2023-01-27T08:21:48.545Z,3.40
2023-01-27T08:22:48.715Z,3.40
2023-01-27T08:23:48.936Z,3.46
2023-01-27T08:24:49.064Z,3.50
2023-01-27T08:25:49.236Z,3.49
2023-01-27T08:26:49.389Z,3.48
2023-01-27T08:27:49.564Z,3.49
2023-01-27T08:28:49.768Z,3.49
2023-01-27T08:29:49.959Z,3.50
2023-01-27T08:30:50.169Z,3.50
2023-01-27T08:31:50.371Z,3.52
2023-01-27T08:32:50.514Z,3.55
2023-01-27T08:33:50.701Z,3.56
2023-01-27T08:34:50.868Z,3.56
2023-01-27T08:35:51.042Z,3.58
2023-01-27T08:36:51.197Z,3.56
2023-01-27T08:37:51.360Z,3.58
2023-01-27T08:38:51.520Z,3.58
2023-01-27T08:39:51.680Z,3.64
2023-01-27T08:40:51.860Z,3.67
2023-01-27T08:41:52.042Z,3.70
2023-01-27T08:42:52.194Z,3.71
2023-01-27T08:43:52.407Z,3.70
2023-01-27T08:44:52.589Z,3.71
2023-01-27T08:45:52.854Z,3.68
2023-01-27T08:46:52.887Z,3.71
2023-01-27T08:47:53.078Z,3.74
2023-01-27T08:48:53.290Z,3.76
2023-01-27T08:49:53.445Z,3.78
2023-01-27T08:50:53.603Z,3.78
2023-01-27T08:51:53.764Z,3.85
2023-01-27T08:52:53.935Z,3.92
2023-01-27T08:53:54.114Z,4.00
2023-01-27T08:54:54.273Z,4.03
2023-01-27T08:55:54.439Z,4.04
2023-01-27T08:56:54.650Z,4.07
2023-01-27T08:57:54.828Z,4.09
2023-01-27T08:58:54.979Z,4.09
2023-01-27T08:59:55.133Z,4.03
2023-01-27T09:00:55.276Z,4.03
2023-01-27T09:01:55.433Z,4.04
2023-01-27T09:02:55.575Z,4.02
2023-01-27T09:03:55.737Z,4.03
2023-01-27T09:04:55.949Z,4.03
2023-01-27T09:05:56.027Z,4.03
2023-01-27T09:06:56.237Z,4.03
2023-01-27T09:07:56.387Z,4.04
2023-01-27T09:08:56.562Z,4.03
2023-01-27T09:10:12.688Z,4.07
2023-01-27T09:10:57.872Z,4.09
2023-01-27T09:11:57.083Z,4.12
2023-01-27T09:12:57.206Z,4.18
2023-01-27T09:13:57.402Z,4.14
2023-01-27T09:14:57.530Z,4.14
2023-01-27T09:15:57.707Z,4.16
2023-01-27T09:16:57.826Z,4.16
2023-01-27T09:17:57.980Z,4.22
2023-01-27T09:18:58.149Z,4.21
2023-01-27T09:19:58.286Z,4.21
2023-01-27T09:20:58.414Z,4.18
2023-01-27T09:21:58.587Z,4.22
2023-01-27T09:22:59.672Z,4.18
2023-01-27T09:23:59.001Z,4.21
2023-01-27T09:24:59.118Z,4.24
2023-01-27T09:25:59.255Z,4.22
2023-01-27T09:27:00.989Z,4.24
2023-01-27T09:27:59.526Z,4.22
2023-01-27T09:28:59.690Z,4.20
2023-01-27T09:29:59.833Z,4.16
2023-01-27T09:31:00.064Z,4.22
2023-01-27T09:32:00.346Z,4.22
2023-01-27T09:33:00.293Z,4.21
2023-01-27T09:34:00.474Z,4.18
2023-01-27T09:35:00.650Z,4.18
2023-01-27T09:36:00.797Z,4.21
2023-01-27T09:37:00.981Z,4.22
2023-01-27T09:38:01.120Z,4.27
2023-01-27T09:39:01.274Z,4.24
2023-01-27T09:40:01.499Z,4.24
2023-01-27T09:41:01.542Z,4.25
2023-01-27T09:42:01.699Z,4.27
2023-01-27T09:43:01.842Z,4.25
2023-01-27T09:44:01.991Z,4.25
2023-01-27T09:45:02.135Z,4.28
2023-01-27T09:46:02.287Z,4.28
2023-01-27T09:47:02.428Z,4.30
2023-01-27T09:48:02.532Z,4.27
2023-01-27T09:49:02.700Z,4.30
2023-01-27T09:50:02.819Z,4.32
2023-01-27T09:51:04.227Z,4.34
2023-01-27T09:52:03.165Z,4.39
2023-01-27T09:53:03.299Z,4.34
2023-01-27T09:54:03.426Z,4.31
2023-01-27T09:55:03.557Z,4.38
2023-01-27T09:56:03.669Z,4.36
2023-01-27T09:57:03.796Z,4.36
2023-01-27T09:58:03.922Z,4.32
2023-01-27T09:59:04.076Z,4.38
2023-01-27T10:00:04.189Z,4.30
2023-01-27T10:01:04.323Z,4.30
2023-01-27T10:02:04.487Z,4.32
2023-01-27T10:03:04.625Z,4.32
2023-01-27T10:04:04.760Z,4.30
2023-01-27T10:05:04.894Z,4.32
2023-01-27T10:06:05.039Z,4.34
2023-01-27T10:07:05.178Z,4.36
2023-01-27T10:08:05.295Z,4.34
2023-01-27T10:09:05.577Z,4.38
2023-01-27T10:10:05.633Z,4.36
2023-01-27T10:11:05.803Z,4.36
2023-01-27T10:12:05.962Z,4.39
2023-01-27T10:13:06.098Z,4.36
2023-01-27T10:14:08.662Z,4.38
2023-01-27T10:15:06.479Z,4.38
2023-01-27T10:16:06.652Z,4.38
2023-01-27T10:17:06.772Z,4.34
2023-01-27T10:18:06.897Z,4.36
2023-01-27T10:19:07.054Z,4.36
2023-01-27T10:20:07.211Z,4.36
2023-01-27T10:21:07.351Z,4.32
2023-01-27T10:22:07.551Z,4.31
2023-01-27T10:23:07.701Z,4.28
2023-01-27T10:24:07.896Z,4.30
2023-01-27T10:25:08.087Z,4.32
2023-01-27T10:26:08.205Z,4.34
2023-01-27T10:27:08.912Z,4.38
2023-01-27T10:28:08.537Z,4.39
2023-01-27T10:29:08.678Z,4.42
2023-01-27T10:30:08.843Z,4.43
2023-01-27T10:31:09.103Z,4.45
2023-01-27T10:32:09.157Z,4.45
2023-01-27T10:33:09.317Z,4.45
2023-01-27T10:34:09.483Z,4.48
2023-01-27T10:35:09.680Z,4.46
2023-01-27T10:36:09.811Z,4.43
2023-01-27T10:37:09.959Z,4.45
2023-01-27T10:38:10.106Z,4.46
2023-01-27T10:39:10.312Z,4.45
2023-01-27T10:40:17.460Z,4.46
2023-01-27T10:41:10.561Z,4.52
2023-01-27T10:42:10.701Z,4.53
2023-01-27T10:43:10.857Z,4.56
2023-01-27T10:44:11.567Z,4.57
2023-01-27T10:45:11.156Z,4.56
2023-01-27T10:46:11.279Z,4.58
2023-01-27T10:47:11.451Z,4.58
2023-01-27T10:48:11.564Z,4.53
2023-01-27T10:49:11.733Z,4.48
2023-01-27T10:50:12.190Z,4.49
2023-01-27T10:51:12.083Z,4.50
2023-01-27T10:52:12.112Z,4.53
2023-01-27T10:53:12.233Z,4.53
2023-01-27T10:54:12.401Z,4.48
2023-01-27T10:55:12.580Z,4.48
2023-01-27T10:56:12.693Z,4.46
2023-01-27T10:57:12.834Z,4.50
2023-01-27T10:58:12.978Z,4.49
2023-01-27T10:59:13.176Z,4.52
2023-01-27T11:00:51.892Z,4.49
2023-01-27T11:01:22.512Z,4.49
2023-01-27T11:02:14.749Z,4.53
2023-01-27T11:03:13.904Z,4.56
2023-01-27T11:04:14.161Z,4.58
2023-01-27T11:05:14.212Z,4.61
2023-01-27T11:06:14.337Z,4.58
2023-01-27T11:07:14.468Z,4.61
2023-01-27T11:08:14.595Z,4.64
2023-01-27T11:09:14.746Z,4.68
2023-01-27T11:10:15.317Z,4.71
2023-01-27T11:11:15.047Z,4.70
2023-01-27T11:12:15.177Z,4.71
2023-01-27T11:13:15.294Z,4.75
2023-01-27T11:14:15.438Z,4.71
2023-01-27T11:15:15.584Z,4.75
2023-01-27T11:16:15.727Z,4.83
2023-01-27T11:17:15.826Z,4.86
2023-01-27T11:18:15.941Z,4.89
2023-01-27T11:19:16.065Z,4.89
2023-01-27T11:20:16.382Z,4.90
2023-01-27T11:21:16.319Z,4.90
2023-01-27T11:22:16.431Z,4.92
2023-01-27T11:23:16.548Z,4.94
2023-01-27T11:24:16.708Z,4.97
2023-01-27T11:25:16.801Z,5.01
2023-01-27T11:26:16.909Z,5.02
2023-01-27T11:27:17.022Z,5.05
2023-01-27T11:28:17.134Z,5.12
2023-01-27T11:29:17.309Z,5.16
2023-01-27T11:30:18.065Z,5.26
2023-01-27T11:31:17.635Z,5.29
2023-01-27T11:32:17.801Z,5.25
2023-01-27T11:33:17.902Z,5.28
2023-01-27T11:34:18.054Z,5.23
2023-01-27T11:35:18.147Z,5.22
2023-01-27T11:36:18.331Z,5.20
2023-01-27T11:37:18.549Z,5.16
2023-01-27T11:38:18.626Z,5.12
2023-01-27T11:39:18.859Z,5.12
2023-01-27T11:40:19.519Z,5.12
2023-01-27T11:41:19.061Z,5.07
2023-01-27T11:42:19.147Z,5.07
2023-01-27T11:43:19.353Z,5.08
2023-01-27T11:44:19.612Z,5.12
2023-01-27T11:45:19.674Z,5.15
2023-01-27T11:46:19.865Z,5.19
2023-01-27T11:47:20.052Z,5.23
2023-01-27T11:48:23.076Z,5.23
2023-01-27T11:49:20.474Z,5.31
2023-01-27T11:50:20.553Z,5.36
2023-01-27T11:51:20.824Z,5.33
2023-01-27T11:52:20.912Z,5.22
2023-01-27T11:53:21.172Z,5.20
2023-01-27T11:54:22.112Z,5.19
2023-01-27T11:55:21.395Z,5.19
2023-01-27T11:56:21.558Z,5.18
2023-01-27T11:57:21.739Z,5.13
2023-01-27T11:58:21.939Z,5.10
2023-01-27T11:59:22.146Z,5.07
2023-01-27T12:00:22.345Z,5.07
2023-01-27T12:01:22.549Z,5.04
2023-01-27T12:02:22.747Z,5.05
2023-01-27T12:03:22.980Z,5.01
2023-01-27T12:04:23.200Z,5.05
2023-01-27T12:05:23.287Z,5.08
2023-01-27T12:06:23.390Z,5.15
2023-01-27T12:07:23.597Z,5.16
2023-01-27T12:08:23.798Z,5.13
2023-01-27T12:09:24.028Z,5.18
2023-01-27T12:10:24.144Z,5.18
2023-01-27T12:11:24.338Z,5.16
2023-01-27T12:12:24.512Z,5.15
2023-01-27T12:13:24.856Z,5.12
2023-01-27T12:14:24.855Z,5.08
2023-01-27T12:15:25.056Z,5.12
2023-01-27T12:16:25.366Z,5.13
2023-01-27T12:17:26.333Z,5.15
2023-01-27T12:18:25.505Z,5.12
2023-01-27T12:19:25.716Z,5.05
2023-01-27T12:20:25.801Z,5.04
2023-01-27T12:21:26.048Z,5.02
2023-01-27T12:22:26.148Z,5.02
2023-01-27T12:23:26.337Z,5.05
2023-01-27T12:24:26.625Z,5.05
2023-01-27T12:25:26.964Z,5.00
2023-01-27T12:26:26.832Z,4.97
2023-01-27T12:27:27.024Z,4.98
2023-01-27T12:28:27.215Z,4.98
2023-01-27T12:29:27.440Z,4.95
2023-01-27T12:30:27.632Z,4.97
2023-01-27T12:31:27.887Z,4.94
2023-01-27T12:32:28.008Z,4.92
2023-01-27T12:33:28.229Z,4.92
2023-01-27T12:34:28.441Z,4.94
2023-01-27T12:35:28.539Z,4.92
2023-01-27T12:36:30.317Z,4.90
2023-01-27T12:37:28.848Z,4.92
2023-01-27T12:38:28.952Z,4.83
2023-01-27T12:39:29.160Z,4.86
2023-01-27T12:40:29.243Z,4.83
2023-01-27T12:41:29.443Z,4.79
2023-01-27T12:42:30.544Z,4.76
2023-01-27T12:43:30.019Z,4.76
2023-01-27T12:44:29.988Z,4.75
2023-01-27T12:45:30.198Z,4.76
2023-01-27T12:46:30.457Z,4.76
2023-01-27T12:47:30.579Z,4.76
2023-01-27T12:48:30.675Z,4.74
2023-01-27T12:49:30.934Z,4.75
2023-01-27T12:50:31.023Z,4.78
2023-01-27T12:51:31.229Z,4.70
2023-01-27T12:52:31.430Z,4.71
2023-01-27T12:53:31.627Z,4.71
2023-01-27T12:54:31.814Z,4.68
2023-01-27T12:55:31.911Z,4.66
2023-01-27T12:56:32.005Z,4.63
2023-01-27T12:57:32.221Z,4.63
2023-01-27T12:58:32.326Z,4.63
2023-01-27T12:59:32.603Z,4.53
2023-01-27T13:00:32.784Z,4.56
2023-01-27T13:01:33.026Z,4.57
2023-01-27T13:02:33.039Z,4.52
2023-01-27T13:03:33.178Z,4.53
2023-01-27T13:04:34.458Z,4.56
2023-01-27T13:05:33.505Z,4.57
2023-01-27T13:06:33.653Z,4.53
2023-01-27T13:07:33.792Z,4.50
2023-01-27T13:08:33.915Z,4.49
2023-01-27T13:09:34.338Z,4.48
2023-01-27T13:10:34.218Z,4.43
2023-01-27T13:11:34.443Z,4.45
2023-01-27T13:12:34.567Z,4.46
2023-01-27T13:13:34.709Z,4.43
2023-01-27T13:14:34.936Z,4.43
2023-01-27T13:15:35.045Z,4.39
2023-01-27T13:16:35.248Z,4.38
2023-01-27T13:17:35.388Z,4.40
2023-01-27T13:18:35.500Z,4.34
2023-01-27T13:19:35.811Z,4.34
2023-01-27T13:20:35.968Z,4.34